Aérodrome :
LOGIN :

S'inscrire | Disclaimer

   EN    FR    IT 

 










Légende :    VFR   VFR Marginal   IFR   IFR Intensif   IFR Très Intensif
Visi : 
Plafond : 
>= 8 km
>= 3000ft
5 à 8 km
1000 à 3000 ft
1500m à 5 km
500 à 1000 ft
800 à 1500m
200 à 500 ft
< 800m
< 200 ft
Symboles :   Orages  Brouillard  Fortes neiges  Fortes précipitations  Vent > 20 kt
SIGMETs :   Divers  Orages  Givrage  Turbulence  Onde Orograph.  Cendres Volcan.






- Altitude de l'aérodrome : 294 ft
- Code IATA : NAP


LIRN - Naples Capodichino

DERNIER METAR :
  • 110220Z 04009KT 9999 FEW030 10/01 Q1011 NOSIG

METARs EXPIRÉS :
  • 110150Z 04008KT 9999 FEW030 09/01 Q1012 NOSIG
  • 110120Z 05009KT 9999 FEW030 10/02 Q1012 NOSIG
  • 110050Z 07013KT 9999 FEW030 11/01 Q1012 NOSIG
  • 110020Z 07014KT 9999 FEW030 11/02 Q1012 NOSIG
  • 102350Z 06016KT 9999 FEW030 11/02 Q1012 NOSIG

TAF TAF LIRN
Valide du 11 à 00h jusqu'au 12 à 00h UTC


102300Z 1100/1124 06013KT 9999 FEW030
BECMG 1118/1120 VRB05KT



MET'MAP, la Météo Aéronautique d'un coup d'oeil ! - Copyright ORBIFLY Décembre 2007 - Disclaimer

ORBIFLY MET'MAP TEAM :

Programmation & Développement : Alexandra Zaïnal
Sur une idée originale de : Baudouin d'Aumeries
Assistance à la programmation : Marc-Olivier Méhu
Soutien technique & logistique : Manuel Goepfert

Contact : metmap@orbifly.com




SOURCES & CREDITS :

   NOAA